createdAt,value
2022-10-08T00:00:04.120Z,0
2022-10-08T00:03:29.302Z,0
2022-10-08T00:06:54.478Z,0
2022-10-08T00:10:19.698Z,0
2022-10-08T00:13:44.945Z,0
2022-10-08T00:17:10.049Z,0
2022-10-08T00:20:35.259Z,0
2022-10-08T00:24:00.420Z,0
2022-10-08T00:27:25.612Z,0
2022-10-08T00:30:50.833Z,0
2022-10-08T00:34:15.971Z,0
2022-10-08T00:37:41.200Z,0
2022-10-08T00:41:06.383Z,0
2022-10-08T00:44:31.594Z,0
2022-10-08T00:47:56.797Z,0
2022-10-08T00:51:21.938Z,0
2022-10-08T00:54:47.133Z,0
2022-10-08T00:58:12.335Z,0
2022-10-08T01:01:37.596Z,0
2022-10-08T01:05:02.741Z,0
2022-10-08T01:08:27.883Z,0
2022-10-08T01:11:53.067Z,0
2022-10-08T01:15:18.290Z,0
2022-10-08T01:18:43.453Z,0
2022-10-08T01:22:08.656Z,0
2022-10-08T01:25:33.823Z,0
2022-10-08T01:28:58.968Z,0
2022-10-08T01:32:24.151Z,0
2022-10-08T01:35:49.364Z,0
2022-10-08T01:39:14.532Z,0
2022-10-08T01:42:39.723Z,0
2022-10-08T01:46:04.923Z,0
2022-10-08T01:49:30.029Z,0
2022-10-08T01:52:55.195Z,0
2022-10-08T01:56:20.384Z,0
2022-10-08T01:59:45.532Z,0
2022-10-08T02:03:10.734Z,0
2022-10-08T02:06:35.926Z,0
2022-10-08T02:10:01.110Z,0
2022-10-08T02:13:26.338Z,0
2022-10-08T02:16:51.570Z,0
2022-10-08T02:20:16.718Z,0
2022-10-08T02:23:41.881Z,0
2022-10-08T02:27:07.087Z,0
2022-10-08T02:30:32.289Z,0
2022-10-08T02:33:57.437Z,0
2022-10-08T02:37:22.628Z,0
2022-10-08T02:40:47.801Z,0
2022-10-08T02:44:13.058Z,0
2022-10-08T02:47:38.278Z,0
2022-10-08T02:51:03.428Z,0
2022-10-08T02:54:28.607Z,0
2022-10-08T02:57:53.775Z,0
2022-10-08T03:01:18.977Z,0
2022-10-08T03:04:44.156Z,0
2022-10-08T03:08:09.316Z,0
2022-10-08T03:11:34.501Z,0
2022-10-08T03:14:59.724Z,0
2022-10-08T03:18:24.932Z,0
2022-10-08T03:21:50.148Z,0
2022-10-08T03:25:15.315Z,0
2022-10-08T03:28:40.594Z,0
2022-10-08T03:32:05.662Z,0
2022-10-08T03:35:30.834Z,0
2022-10-08T03:38:56.038Z,0
2022-10-08T03:42:21.207Z,0
2022-10-08T03:45:46.414Z,0
2022-10-08T03:49:11.562Z,0
2022-10-08T03:52:36.724Z,0
2022-10-08T03:56:01.937Z,0
2022-10-08T03:59:27.090Z,0
2022-10-08T04:02:52.364Z,0
2022-10-08T04:06:17.447Z,0
2022-10-08T04:09:42.673Z,0
2022-10-08T04:13:07.870Z,0
2022-10-08T04:16:33.012Z,0
2022-10-08T04:19:58.233Z,0
2022-10-08T04:23:23.478Z,0
2022-10-08T04:26:48.675Z,0
2022-10-08T04:30:13.901Z,0
2022-10-08T04:33:39.081Z,0
2022-10-08T04:37:04.237Z,0
2022-10-08T04:40:29.441Z,0
2022-10-08T04:43:54.621Z,0
2022-10-08T04:47:19.821Z,0
2022-10-08T04:50:44.986Z,0
2022-10-08T04:54:10.164Z,0
2022-10-08T04:57:35.377Z,0
2022-10-08T05:01:00.575Z,0
2022-10-08T05:04:25.859Z,0
2022-10-08T05:07:50.923Z,0
2022-10-08T05:11:16.065Z,0
2022-10-08T05:14:41.213Z,0
2022-10-08T05:18:06.382Z,0
2022-10-08T05:21:31.577Z,0
2022-10-08T05:24:56.759Z,0
2022-10-08T05:28:21.971Z,0
2022-10-08T05:31:47.087Z,0
2022-10-08T05:35:12.276Z,0
2022-10-08T05:38:37.475Z,0
2022-10-08T05:42:02.650Z,0
2022-10-08T05:45:27.820Z,0
2022-10-08T05:48:53.120Z,0
2022-10-08T05:52:18.317Z,0
2022-10-08T05:55:43.498Z,0
2022-10-08T05:59:08.660Z,0
2022-10-08T06:02:33.859Z,0
2022-10-08T06:05:59.009Z,0
2022-10-08T06:09:24.202Z,0
2022-10-08T06:12:49.708Z,0
2022-10-08T06:16:14.917Z,0
2022-10-08T06:19:40.081Z,0
2022-10-08T06:23:05.265Z,6
2022-10-08T06:26:34.530Z,6
2022-10-08T06:29:55.763Z,6
2022-10-08T06:33:20.920Z,6
2022-10-08T06:36:46.092Z,6
2022-10-08T06:40:11.264Z,11
2022-10-08T06:43:36.425Z,11
2022-10-08T06:47:01.661Z,11
2022-10-08T06:50:26.921Z,11
2022-10-08T06:53:52.020Z,11
2022-10-08T06:57:17.295Z,11
2022-10-08T07:00:42.503Z,11
2022-10-08T07:04:07.695Z,11
2022-10-08T07:07:32.816Z,11
2022-10-08T07:10:57.991Z,11
2022-10-08T07:14:23.172Z,11
2022-10-08T07:17:48.344Z,11
2022-10-08T07:21:13.587Z,11
2022-10-08T07:24:38.713Z,11
2022-10-08T07:28:03.990Z,11
2022-10-08T07:31:29.152Z,11
2022-10-08T07:34:57.872Z,11
2022-10-08T07:38:19.474Z,11
2022-10-08T07:41:44.615Z,11
2022-10-08T07:45:09.800Z,6
2022-10-08T07:48:35.026Z,11
2022-10-08T07:52:00.190Z,11
2022-10-08T07:55:25.386Z,11
2022-10-08T07:58:50.561Z,11
2022-10-08T08:02:15.852Z,11
2022-10-08T08:05:40.917Z,11
2022-10-08T08:09:06.071Z,11
2022-10-08T08:12:31.325Z,11
2022-10-08T08:15:56.458Z,17
2022-10-08T08:19:21.631Z,6
2022-10-08T08:22:47.013Z,6
2022-10-08T08:26:13.212Z,11
2022-10-08T08:29:38.394Z,11
2022-10-08T08:33:03.554Z,11
2022-10-08T08:36:28.707Z,17
2022-10-08T08:39:53.968Z,17
2022-10-08T08:43:19.157Z,11
2022-10-08T08:46:44.391Z,17
2022-10-08T08:50:09.487Z,17
2022-10-08T08:53:34.675Z,11
2022-10-08T08:56:59.842Z,11
2022-10-08T09:00:25.014Z,6
2022-10-08T09:03:50.209Z,6
2022-10-08T09:07:15.332Z,11
2022-10-08T09:10:40.497Z,6
2022-10-08T09:14:05.648Z,6
2022-10-08T09:17:30.793Z,11
2022-10-08T09:20:55.963Z,17
2022-10-08T09:24:21.103Z,17
2022-10-08T09:27:46.253Z,23
2022-10-08T09:31:11.485Z,23
2022-10-08T09:34:36.610Z,23
2022-10-08T09:38:05.575Z,23
2022-10-08T09:41:26.886Z,17
2022-10-08T09:44:52.053Z,17
2022-10-08T09:48:17.218Z,17
2022-10-08T09:51:42.382Z,17
2022-10-08T09:55:07.562Z,17
2022-10-08T09:58:32.691Z,23
2022-10-08T10:01:57.850Z,23
2022-10-08T10:05:23.025Z,23
2022-10-08T10:08:48.198Z,23
2022-10-08T10:12:13.392Z,23
2022-10-08T10:15:38.542Z,23
2022-10-08T10:19:03.719Z,28
2022-10-08T10:22:28.886Z,34
2022-10-08T10:25:57.306Z,39
2022-10-08T10:29:19.327Z,39
2022-10-08T10:32:44.778Z,23
2022-10-08T10:36:09.674Z,23
2022-10-08T10:39:34.857Z,23
2022-10-08T10:43:00.019Z,23
2022-10-08T10:46:25.391Z,34
2022-10-08T10:49:50.614Z,39
2022-10-08T10:53:15.814Z,34
2022-10-08T10:56:40.982Z,34
2022-10-08T11:00:06.160Z,34
2022-10-08T11:03:31.343Z,39
2022-10-08T11:06:56.471Z,39
2022-10-08T11:10:21.646Z,45
2022-10-08T11:13:46.806Z,45
2022-10-08T11:17:11.981Z,45
2022-10-08T11:20:37.229Z,45
2022-10-08T11:24:02.511Z,23
2022-10-08T11:27:27.702Z,45
2022-10-08T11:30:52.968Z,45
2022-10-08T11:34:18.115Z,17
2022-10-08T11:37:43.309Z,23
2022-10-08T11:41:08.487Z,23
2022-10-08T11:44:33.715Z,23
2022-10-08T11:47:58.901Z,28
2022-10-08T11:51:24.054Z,28
2022-10-08T11:54:52.955Z,34
2022-10-08T11:58:14.458Z,28
2022-10-08T12:01:39.635Z,23
2022-10-08T12:05:04.805Z,23
2022-10-08T12:08:29.972Z,23
2022-10-08T12:11:55.225Z,17
2022-10-08T12:15:20.449Z,11
2022-10-08T12:18:45.666Z,11
2022-10-08T12:22:10.817Z,11
2022-10-08T12:25:36.063Z,17
2022-10-08T12:29:01.308Z,11
2022-10-08T12:32:26.467Z,6
2022-10-08T12:35:51.676Z,11
2022-10-08T12:39:16.876Z,11
2022-10-08T12:42:42.069Z,6
2022-10-08T12:46:07.451Z,6
2022-10-08T12:49:32.471Z,11
2022-10-08T12:52:57.694Z,6
2022-10-08T12:56:22.881Z,11
2022-10-08T12:59:48.109Z,17
2022-10-08T13:03:13.293Z,17
2022-10-08T13:06:38.496Z,17
2022-10-08T13:10:03.699Z,17
2022-10-08T13:13:28.906Z,17
2022-10-08T13:16:54.059Z,11
2022-10-08T13:20:19.273Z,6
2022-10-08T13:23:44.487Z,17
2022-10-08T13:27:09.739Z,11
2022-10-08T13:30:34.940Z,17
2022-10-08T13:34:00.149Z,17
2022-10-08T13:37:25.364Z,11
2022-10-08T13:40:50.514Z,6
2022-10-08T13:44:15.692Z,0
2022-10-08T13:47:40.870Z,6
2022-10-08T13:51:06.020Z,0
2022-10-08T13:54:31.206Z,0
2022-10-08T13:57:56.384Z,0
2022-10-08T14:01:21.620Z,0
2022-10-08T14:04:46.808Z,0
2022-10-08T14:08:12.024Z,6
2022-10-08T14:11:37.231Z,0
2022-10-08T14:15:02.434Z,6
2022-10-08T14:18:27.658Z,0
2022-10-08T14:21:52.929Z,0
2022-10-08T14:25:18.497Z,6
2022-10-08T14:28:43.799Z,6
2022-10-08T15:05:27.081Z,0
2022-10-08T15:08:52.219Z,6
2022-10-08T15:12:17.408Z,6
2022-10-08T15:15:42.576Z,6
2022-10-08T15:19:07.746Z,6
2022-10-08T15:22:32.977Z,6
2022-10-08T15:25:58.137Z,6
2022-10-08T15:29:23.349Z,6
2022-10-08T15:32:48.893Z,6
2022-10-08T15:36:13.771Z,6
2022-10-08T15:39:39.022Z,6
2022-10-08T15:43:04.197Z,6
2022-10-08T15:46:29.376Z,6
2022-10-08T15:49:54.570Z,0
2022-10-08T15:53:19.742Z,0
2022-10-08T15:56:44.926Z,0
2022-10-08T16:00:10.070Z,0
2022-10-08T16:03:35.219Z,0
2022-10-08T16:07:00.390Z,0
2022-10-08T16:10:25.565Z,0
2022-10-08T16:13:50.835Z,0
2022-10-08T16:17:16.015Z,0
2022-10-08T16:20:41.211Z,0
2022-10-08T16:24:06.819Z,0
2022-10-08T16:27:32.002Z,0
2022-10-08T16:30:57.308Z,0
2022-10-08T16:34:22.449Z,0
2022-10-08T16:37:47.591Z,0
2022-10-08T16:41:12.789Z,0
2022-10-08T16:44:37.972Z,0
2022-10-08T16:48:03.338Z,0
2022-10-08T16:51:28.431Z,0
2022-10-08T16:54:54.637Z,0
2022-10-08T16:58:18.822Z,0
2022-10-08T17:01:44.120Z,0
2022-10-08T17:05:09.197Z,0
2022-10-08T17:08:34.340Z,0
2022-10-08T17:11:59.528Z,0
2022-10-08T17:15:24.692Z,0
2022-10-08T17:18:49.872Z,0
2022-10-08T17:22:15.228Z,0
2022-10-08T17:25:40.624Z,0
2022-10-08T17:29:05.825Z,0
2022-10-08T17:32:31.056Z,0
2022-10-08T17:35:56.210Z,0
2022-10-08T17:39:21.454Z,0
2022-10-08T17:42:46.845Z,0
2022-10-08T17:46:11.839Z,0
2022-10-08T17:49:36.951Z,0
2022-10-08T17:53:02.119Z,0
2022-10-08T17:56:27.353Z,0
2022-10-08T17:59:52.477Z,0
2022-10-08T18:03:17.646Z,0
2022-10-08T18:06:42.819Z,0
2022-10-08T18:10:08.013Z,0
2022-10-08T18:13:33.237Z,0
2022-10-08T18:16:58.360Z,0
2022-10-08T18:20:23.533Z,0
2022-10-08T18:23:48.676Z,0
2022-10-08T18:27:13.832Z,0
2022-10-08T18:30:39.100Z,0
2022-10-08T18:34:04.269Z,0
2022-10-08T18:37:29.421Z,0
2022-10-08T18:40:54.590Z,0
2022-10-08T18:44:19.766Z,0
2022-10-08T18:47:44.944Z,0
2022-10-08T18:51:10.085Z,0
2022-10-08T18:54:35.295Z,0
2022-10-08T18:58:00.484Z,0
2022-10-08T19:01:25.737Z,0
2022-10-08T19:04:50.844Z,0
2022-10-08T19:08:15.983Z,0
2022-10-08T19:11:44.578Z,0
2022-10-08T19:15:06.321Z,0
2022-10-08T19:18:31.472Z,0
2022-10-08T19:21:56.662Z,0
2022-10-08T19:25:21.810Z,0
2022-10-08T19:28:47.087Z,0
2022-10-08T19:32:12.162Z,0
2022-10-08T19:35:37.344Z,0
2022-10-08T19:39:02.543Z,0
2022-10-08T19:42:27.676Z,0
2022-10-08T19:45:52.846Z,0
2022-10-08T19:49:18.041Z,0
2022-10-08T19:52:43.206Z,0
2022-10-08T19:56:08.388Z,0
2022-10-08T19:59:33.527Z,0
2022-10-08T20:02:58.786Z,0
2022-10-08T20:06:24.883Z,0
2022-10-08T20:09:49.123Z,0
2022-10-08T20:13:14.341Z,0
2022-10-08T20:16:39.570Z,0
2022-10-08T20:20:20.815Z,0
2022-10-08T20:23:29.849Z,0
2022-10-08T20:26:55.042Z,0
2022-10-08T20:30:20.253Z,0
2022-10-08T20:33:45.397Z,0
2022-10-08T20:37:10.558Z,0
2022-10-08T20:40:35.739Z,0
2022-10-08T20:44:00.947Z,0
2022-10-08T20:47:26.147Z,0
2022-10-08T20:50:51.288Z,0
2022-10-08T20:54:16.468Z,0
2022-10-08T20:57:41.647Z,0
2022-10-08T21:01:06.854Z,0
2022-10-08T21:04:32.025Z,0
2022-10-08T21:07:57.169Z,0
2022-10-08T21:11:22.344Z,0
2022-10-08T21:14:47.563Z,0
2022-10-08T21:18:12.738Z,0
2022-10-08T21:21:37.939Z,0
2022-10-08T21:25:03.078Z,0
2022-10-08T21:28:28.315Z,0
2022-10-08T21:31:53.441Z,0
2022-10-08T21:35:18.573Z,0
2022-10-08T21:38:43.767Z,0
2022-10-08T21:42:08.905Z,0
2022-10-08T21:45:34.127Z,0
2022-10-08T21:48:59.266Z,0
2022-10-08T21:52:24.413Z,0
2022-10-08T21:55:49.596Z,0
2022-10-08T21:59:14.747Z,0
2022-10-08T22:02:39.940Z,0
2022-10-08T22:06:05.081Z,0
2022-10-08T22:09:30.284Z,0
2022-10-08T22:12:55.456Z,0
2022-10-08T22:16:20.704Z,0
2022-10-08T22:19:45.797Z,0
2022-10-08T22:23:10.965Z,0
2022-10-08T22:26:36.126Z,0
2022-10-08T22:30:01.317Z,0
2022-10-08T22:33:26.451Z,0
2022-10-08T22:36:51.626Z,0
2022-10-08T22:40:16.793Z,0
2022-10-08T22:43:41.960Z,0
2022-10-08T22:47:07.151Z,0
2022-10-08T22:50:32.283Z,0
2022-10-08T22:53:57.432Z,0
2022-10-08T22:57:22.605Z,0
2022-10-08T23:00:47.776Z,0
2022-10-08T23:04:12.949Z,0
2022-10-08T23:07:38.104Z,0
2022-10-08T23:11:03.278Z,0
2022-10-08T23:14:28.438Z,0
2022-10-08T23:17:53.601Z,0
2022-10-08T23:21:18.796Z,0
2022-10-08T23:24:43.936Z,0
2022-10-08T23:28:09.150Z,0
2022-10-08T23:31:34.346Z,0
2022-10-08T23:34:59.464Z,0
2022-10-08T23:38:24.726Z,0
2022-10-08T23:41:49.799Z,0
2022-10-08T23:45:14.950Z,0
2022-10-08T23:48:40.119Z,0
2022-10-08T23:52:05.278Z,0
2022-10-08T23:55:30.484Z,0
2022-10-08T23:58:55.593Z,0
